sensor_id;sensor_type;location;lat;lon;timestamp;P1;durP1;ratioP1;P2;durP2;ratioP2
46983;SDS011;34732;52.112;9.366;2023-03-05T10:05:49;36.03;;;3.22;;
46983;SDS011;34732;52.112;9.366;2023-03-05T10:13:15;9.88;;;1.35;;
46983;SDS011;34732;52.112;9.366;2023-03-05T10:27:38;6.22;;;1.13;;
46983;SDS011;34732;52.112;9.366;2023-03-05T10:34:58;4.82;;;1.15;;
46983;SDS011;34732;52.112;9.366;2023-03-05T10:42:35;5.65;;;1.33;;
46983;SDS011;34732;52.112;9.366;2023-03-05T10:46:11;5.57;;;1.45;;
46983;SDS011;34732;52.112;9.366;2023-03-05T10:49:36;4.20;;;1.50;;
46983;SDS011;34732;52.112;9.366;2023-03-05T10:56:30;7.40;;;1.27;;
46983;SDS011;34732;52.112;9.366;2023-03-05T11:03:23;4.85;;;1.00;;
46983;SDS011;34732;52.112;9.366;2023-03-05T11:06:47;3.88;;;1.15;;
46983;SDS011;34732;52.112;9.366;2023-03-05T11:10:17;3.45;;;1.13;;
46983;SDS011;34732;52.112;9.366;2023-03-05T11:13:49;2.65;;;1.17;;
46983;SDS011;34732;52.112;9.366;2023-03-05T11:20:52;4.20;;;1.20;;
46983;SDS011;34732;52.112;9.366;2023-03-05T11:24:33;3.70;;;0.90;;
46983;SDS011;34732;52.112;9.366;2023-03-05T11:27:54;3.25;;;1.50;;
46983;SDS011;34732;52.112;9.366;2023-03-05T11:34:44;3.38;;;1.10;;
46983;SDS011;34732;52.112;9.366;2023-03-05T11:38:10;4.35;;;1.10;;
46983;SDS011;34732;52.112;9.366;2023-03-05T11:41:41;4.35;;;1.20;;
46983;SDS011;34732;52.112;9.366;2023-03-05T11:45:19;3.35;;;1.00;;
46983;SDS011;34732;52.112;9.366;2023-03-05T11:48:43;4.30;;;1.20;;
46983;SDS011;34732;52.112;9.366;2023-03-05T11:52:23;4.43;;;1.30;;
46983;SDS011;34732;52.112;9.366;2023-03-05T11:55:58;5.70;;;1.55;;
46983;SDS011;34732;52.112;9.366;2023-03-05T12:03:55;9.82;;;1.63;;
46983;SDS011;34732;52.112;9.366;2023-03-05T12:11:43;7.22;;;1.88;;
46983;SDS011;34732;52.112;9.366;2023-03-05T12:22:55;9.77;;;1.80;;
46983;SDS011;34732;52.112;9.366;2023-03-05T12:26:52;11.38;;;1.30;;
46983;SDS011;34732;52.112;9.366;2023-03-05T12:34:02;3.20;;;1.20;;
46983;SDS011;34732;52.112;9.366;2023-03-05T12:37:59;5.65;;;1.30;;
46983;SDS011;34732;52.112;9.366;2023-03-05T12:44:45;4.50;;;1.25;;
46983;SDS011;34732;52.112;9.366;2023-03-05T12:51:51;5.55;;;0.80;;
46983;SDS011;34732;52.112;9.366;2023-03-05T12:58:57;2.60;;;1.00;;
46983;SDS011;34732;52.112;9.366;2023-03-05T13:05:54;6.68;;;1.30;;
46983;SDS011;34732;52.112;9.366;2023-03-05T13:09:24;4.38;;;0.88;;
46983;SDS011;34732;52.112;9.366;2023-03-05T13:20:58;2.72;;;1.00;;
46983;SDS011;34732;52.112;9.366;2023-03-05T13:24:41;5.00;;;0.70;;
46983;SDS011;34732;52.112;9.366;2023-03-05T13:36:59;4.35;;;1.10;;
46983;SDS011;34732;52.112;9.366;2023-03-05T13:40:41;3.92;;;1.00;;
46983;SDS011;34732;52.112;9.366;2023-03-05T13:48:26;1.88;;;0.98;;
46983;SDS011;34732;52.112;9.366;2023-03-05T13:51:51;3.25;;;1.10;;
46983;SDS011;34732;52.112;9.366;2023-03-05T13:55:20;2.60;;;0.73;;
46983;SDS011;34732;52.112;9.366;2023-03-05T13:58:50;2.15;;;0.75;;
46983;SDS011;34732;52.112;9.366;2023-03-05T14:02:16;5.25;;;1.00;;
46983;SDS011;34732;52.112;9.366;2023-03-05T14:05:41;13.20;;;1.35;;
46983;SDS011;34732;52.112;9.366;2023-03-05T14:09:07;10.13;;;1.70;;
46983;SDS011;34732;52.112;9.366;2023-03-05T14:12:42;7.90;;;1.20;;
46983;SDS011;34732;52.112;9.366;2023-03-05T14:19:34;6.15;;;0.98;;
46983;SDS011;34732;52.112;9.366;2023-03-05T14:23:01;8.00;;;1.42;;
46983;SDS011;34732;52.112;9.366;2023-03-05T14:26:47;6.20;;;1.10;;
46983;SDS011;34732;52.112;9.366;2023-03-05T14:30:13;7.03;;;1.35;;
46983;SDS011;34732;52.112;9.366;2023-03-05T14:33:44;3.90;;;0.98;;
46983;SDS011;34732;52.112;9.366;2023-03-05T14:37:06;4.70;;;1.30;;
46983;SDS011;34732;52.112;9.366;2023-03-05T14:40:43;7.50;;;1.20;;
46983;SDS011;34732;52.112;9.366;2023-03-05T14:44:11;8.55;;;1.63;;
46983;SDS011;34732;52.112;9.366;2023-03-05T14:47:36;3.33;;;1.10;;
46983;SDS011;34732;52.112;9.366;2023-03-05T14:51:02;4.65;;;1.10;;
46983;SDS011;34732;52.112;9.366;2023-03-05T14:54:26;7.88;;;1.27;;
46983;SDS011;34732;52.112;9.366;2023-03-05T14:57:50;3.80;;;1.05;;
46983;SDS011;34732;52.112;9.366;2023-03-05T15:01:20;8.95;;;1.50;;
46983;SDS011;34732;52.112;9.366;2023-03-05T15:04:49;6.13;;;1.00;;
46983;SDS011;34732;52.112;9.366;2023-03-05T15:08:19;4.32;;;1.02;;
46983;SDS011;34732;52.112;9.366;2023-03-05T15:15:17;4.37;;;0.97;;
46983;SDS011;34732;52.112;9.366;2023-03-05T15:18:47;2.13;;;0.65;;
46983;SDS011;34732;52.112;9.366;2023-03-05T15:22:10;5.97;;;1.00;;
46983;SDS011;34732;52.112;9.366;2023-03-05T15:25:32;3.85;;;0.70;;
46983;SDS011;34732;52.112;9.366;2023-03-05T15:28:56;3.40;;;0.90;;
46983;SDS011;34732;52.112;9.366;2023-03-05T15:32:19;4.38;;;0.80;;
46983;SDS011;34732;52.112;9.366;2023-03-05T15:35:45;4.50;;;0.70;;
46983;SDS011;34732;52.112;9.366;2023-03-05T15:39:09;6.38;;;1.05;;
46983;SDS011;34732;52.112;9.366;2023-03-05T15:42:33;4.03;;;0.57;;
46983;SDS011;34732;52.112;9.366;2023-03-05T15:46:12;6.90;;;1.02;;
46983;SDS011;34732;52.112;9.366;2023-03-05T15:53:00;2.83;;;1.30;;
46983;SDS011;34732;52.112;9.366;2023-03-05T15:56:23;6.88;;;0.88;;
46983;SDS011;34732;52.112;9.366;2023-03-05T15:59:52;2.33;;;0.93;;
46983;SDS011;34732;52.112;9.366;2023-03-05T16:03:16;6.07;;;0.85;;
46983;SDS011;34732;52.112;9.366;2023-03-05T16:06:42;2.67;;;0.70;;
46983;SDS011;34732;52.112;9.366;2023-03-05T16:10:08;2.78;;;0.70;;
46983;SDS011;34732;52.112;9.366;2023-03-05T16:13:35;5.35;;;0.77;;
46983;SDS011;34732;52.112;9.366;2023-03-05T16:16:59;3.65;;;0.70;;
46983;SDS011;34732;52.112;9.366;2023-03-05T16:20:22;2.90;;;0.75;;
46983;SDS011;34732;52.112;9.366;2023-03-05T16:23:48;4.63;;;0.70;;
46983;SDS011;34732;52.112;9.366;2023-03-05T16:27:12;5.32;;;0.60;;
46983;SDS011;34732;52.112;9.366;2023-03-05T16:30:40;4.22;;;0.70;;
46983;SDS011;34732;52.112;9.366;2023-03-05T16:34:01;1.63;;;0.70;;
46983;SDS011;34732;52.112;9.366;2023-03-05T16:37:27;3.40;;;0.70;;
46983;SDS011;34732;52.112;9.366;2023-03-05T16:40:53;2.85;;;0.65;;
46983;SDS011;34732;52.112;9.366;2023-03-05T16:44:17;5.97;;;0.85;;
46983;SDS011;34732;52.112;9.366;2023-03-05T16:47:40;2.65;;;0.50;;
46983;SDS011;34732;52.112;9.366;2023-03-05T16:51:06;2.80;;;0.65;;
46983;SDS011;34732;52.112;9.366;2023-03-05T16:54:33;3.38;;;0.70;;
46983;SDS011;34732;52.112;9.366;2023-03-05T16:57:58;5.20;;;0.70;;
46983;SDS011;34732;52.112;9.366;2023-03-05T17:01:24;2.88;;;0.70;;
46983;SDS011;34732;52.112;9.366;2023-03-05T17:04:45;2.80;;;0.95;;
46983;SDS011;34732;52.112;9.366;2023-03-05T17:08:12;3.40;;;1.08;;
46983;SDS011;34732;52.112;9.366;2023-03-05T17:11:38;3.72;;;0.50;;
46983;SDS011;34732;52.112;9.366;2023-03-05T17:15:00;5.22;;;0.60;;
46983;SDS011;34732;52.112;9.366;2023-03-05T17:18:21;2.55;;;0.80;;
46983;SDS011;34732;52.112;9.366;2023-03-05T17:21:42;5.32;;;0.95;;
46983;SDS011;34732;52.112;9.366;2023-03-05T17:25:27;2.15;;;0.60;;
46983;SDS011;34732;52.112;9.366;2023-03-05T17:28:48;3.00;;;0.50;;
46983;SDS011;34732;52.112;9.366;2023-03-05T17:32:14;2.95;;;0.50;;
46983;SDS011;34732;52.112;9.366;2023-03-05T17:35:42;3.05;;;0.50;;
46983;SDS011;34732;52.112;9.366;2023-03-05T17:39:11;1.65;;;0.50;;
46983;SDS011;34732;52.112;9.366;2023-03-05T17:42:35;4.72;;;0.73;;
46983;SDS011;34732;52.112;9.366;2023-03-05T17:46:01;3.33;;;0.80;;
46983;SDS011;34732;52.112;9.366;2023-03-05T17:49:28;2.97;;;0.60;;
46983;SDS011;34732;52.112;9.366;2023-03-05T17:52:51;3.33;;;0.60;;
46983;SDS011;34732;52.112;9.366;2023-03-05T17:56:14;6.00;;;0.68;;
46983;SDS011;34732;52.112;9.366;2023-03-05T17:59:44;2.15;;;0.50;;
46983;SDS011;34732;52.112;9.366;2023-03-05T18:03:11;4.70;;;0.70;;
46983;SDS011;34732;52.112;9.366;2023-03-05T18:06:34;2.50;;;0.50;;
46983;SDS011;34732;52.112;9.366;2023-03-05T18:09:57;2.85;;;0.40;;
46983;SDS011;34732;52.112;9.366;2023-03-05T18:13:25;2.10;;;0.50;;
46983;SDS011;34732;52.112;9.366;2023-03-05T18:16:46;2.67;;;0.80;;
46983;SDS011;34732;52.112;9.366;2023-03-05T18:24:38;0.93;;;0.50;;
46983;SDS011;34732;52.112;9.366;2023-03-05T18:28:07;2.13;;;0.68;;
46983;SDS011;34732;52.112;9.366;2023-03-05T18:31:32;2.38;;;0.60;;
46983;SDS011;34732;52.112;9.366;2023-03-05T18:35:01;1.98;;;0.55;;
46983;SDS011;34732;52.112;9.366;2023-03-05T18:38:28;2.17;;;0.40;;
46983;SDS011;34732;52.112;9.366;2023-03-05T18:41:51;2.90;;;0.45;;
46983;SDS011;34732;52.112;9.366;2023-03-05T18:45:15;3.20;;;0.55;;
46983;SDS011;34732;52.112;9.366;2023-03-05T18:48:45;4.60;;;0.60;;
46983;SDS011;34732;52.112;9.366;2023-03-05T18:52:09;2.42;;;0.60;;
46983;SDS011;34732;52.112;9.366;2023-03-05T18:55:31;2.42;;;0.65;;
46983;SDS011;34732;52.112;9.366;2023-03-05T18:58:52;6.43;;;1.00;;
46983;SDS011;34732;52.112;9.366;2023-03-05T19:02:17;5.15;;;0.77;;
46983;SDS011;34732;52.112;9.366;2023-03-05T19:05:43;7.85;;;0.70;;
46983;SDS011;34732;52.112;9.366;2023-03-05T19:09:04;4.38;;;0.70;;
46983;SDS011;34732;52.112;9.366;2023-03-05T19:12:36;5.13;;;0.63;;
46983;SDS011;34732;52.112;9.366;2023-03-05T19:19:47;3.03;;;0.50;;
46983;SDS011;34732;52.112;9.366;2023-03-05T19:23:12;5.38;;;0.60;;
46983;SDS011;34732;52.112;9.366;2023-03-05T19:26:38;5.03;;;0.80;;
46983;SDS011;34732;52.112;9.366;2023-03-05T19:30:07;3.10;;;0.63;;
46983;SDS011;34732;52.112;9.366;2023-03-05T19:33:29;3.10;;;0.60;;
46983;SDS011;34732;52.112;9.366;2023-03-05T19:36:53;3.08;;;0.82;;
46983;SDS011;34732;52.112;9.366;2023-03-05T19:40:16;7.35;;;0.93;;
46983;SDS011;34732;52.112;9.366;2023-03-05T19:43:45;4.55;;;0.63;;
46983;SDS011;34732;52.112;9.366;2023-03-05T19:47:11;3.63;;;0.60;;
46983;SDS011;34732;52.112;9.366;2023-03-05T19:50:34;6.25;;;0.60;;
46983;SDS011;34732;52.112;9.366;2023-03-05T19:53:57;2.28;;;0.45;;
46983;SDS011;34732;52.112;9.366;2023-03-05T19:57:25;1.48;;;0.70;;
46983;SDS011;34732;52.112;9.366;2023-03-05T20:00:53;3.80;;;0.70;;
46983;SDS011;34732;52.112;9.366;2023-03-05T20:08:10;5.55;;;1.08;;
46983;SDS011;34732;52.112;9.366;2023-03-05T20:11:31;2.60;;;0.60;;
46983;SDS011;34732;52.112;9.366;2023-03-05T20:14:53;2.95;;;0.60;;
46983;SDS011;34732;52.112;9.366;2023-03-05T20:18:16;1.95;;;0.50;;
46983;SDS011;34732;52.112;9.366;2023-03-05T20:21:39;4.32;;;0.50;;
46983;SDS011;34732;52.112;9.366;2023-03-05T20:25:02;4.93;;;0.98;;
46983;SDS011;34732;52.112;9.366;2023-03-05T20:31:51;5.32;;;0.70;;
46983;SDS011;34732;52.112;9.366;2023-03-05T20:35:15;6.25;;;1.08;;
46983;SDS011;34732;52.112;9.366;2023-03-05T20:38:45;2.17;;;1.20;;
46983;SDS011;34732;52.112;9.366;2023-03-05T20:42:11;2.72;;;1.20;;
46983;SDS011;34732;52.112;9.366;2023-03-05T20:45:34;2.50;;;1.20;;
